sensor_id;sensor_type;location;lat;lon;timestamp;pressure;altitude;pressure_sealevel;temperature;humidity
6349;BME280;3207;42.648;23.406;2022-08-21T00:00:42;99641.59;;;24.72;76.42
6349;BME280;3207;42.648;23.406;2022-08-21T00:03:10;99637.25;;;24.71;76.15
6349;BME280;3207;42.648;23.406;2022-08-21T00:05:43;99637.47;;;24.70;76.11
6349;BME280;3207;42.648;23.406;2022-08-21T00:08:10;99637.91;;;24.67;75.67
6349;BME280;3207;42.648;23.406;2022-08-21T00:10:38;99641.63;;;24.59;75.28
6349;BME280;3207;42.648;23.406;2022-08-21T00:13:06;99635.09;;;24.55;74.40
6349;BME280;3207;42.648;23.406;2022-08-21T00:15:37;99640.44;;;24.49;74.38
6349;BME280;3207;42.648;23.406;2022-08-21T00:18:04;99640.25;;;24.43;74.21
6349;BME280;3207;42.648;23.406;2022-08-21T00:20:32;99639.22;;;24.38;74.32
6349;BME280;3207;42.648;23.406;2022-08-21T00:22:59;99630.00;;;24.34;74.21
6349;BME280;3207;42.648;23.406;2022-08-21T00:25:26;99629.81;;;24.29;74.45
6349;BME280;3207;42.648;23.406;2022-08-21T00:27:53;99621.00;;;24.22;74.37
6349;BME280;3207;42.648;23.406;2022-08-21T00:30:22;99636.63;;;24.25;74.27
6349;BME280;3207;42.648;23.406;2022-08-21T00:32:51;99630.66;;;24.23;74.19
6349;BME280;3207;42.648;23.406;2022-08-21T00:35:21;99628.16;;;24.21;74.71
6349;BME280;3207;42.648;23.406;2022-08-21T00:37:48;99628.34;;;24.20;74.54
6349;BME280;3207;42.648;23.406;2022-08-21T00:40:19;99623.00;;;24.20;74.72
6349;BME280;3207;42.648;23.406;2022-08-21T00:42:47;99557.75;;;23.76;74.85
6349;BME280;3207;42.648;23.406;2022-08-21T00:45:14;99616.44;;;24.16;75.20
6349;BME280;3207;42.648;23.406;2022-08-21T00:47:41;99617.06;;;24.18;75.00
6349;BME280;3207;42.648;23.406;2022-08-21T00:50:10;99623.41;;;24.17;75.21
6349;BME280;3207;42.648;23.406;2022-08-21T00:52:37;99624.25;;;24.17;75.31
6349;BME280;3207;42.648;23.406;2022-08-21T00:55:08;99626.50;;;24.20;75.44
6349;BME280;3207;42.648;23.406;2022-08-21T00:57:42;99622.41;;;24.18;74.92
6349;BME280;3207;42.648;23.406;2022-08-21T01:00:14;99618.09;;;24.17;75.05
6349;BME280;3207;42.648;23.406;2022-08-21T01:02:41;99608.88;;;24.13;75.03
6349;BME280;3207;42.648;23.406;2022-08-21T01:05:09;99609.28;;;24.09;75.02
6349;BME280;3207;42.648;23.406;2022-08-21T01:07:36;99602.91;;;24.11;75.34
6349;BME280;3207;42.648;23.406;2022-08-21T01:10:04;99602.91;;;24.11;75.23
6349;BME280;3207;42.648;23.406;2022-08-21T01:12:32;99599.81;;;24.14;75.76
6349;BME280;3207;42.648;23.406;2022-08-21T01:14:59;99601.47;;;24.15;75.34
6349;BME280;3207;42.648;23.406;2022-08-21T01:17:27;99595.88;;;24.16;75.04
6349;BME280;3207;42.648;23.406;2022-08-21T01:19:57;99597.31;;;24.19;75.08
6349;BME280;3207;42.648;23.406;2022-08-21T01:22:26;99596.09;;;24.21;75.20
6349;BME280;3207;42.648;23.406;2022-08-21T01:24:52;99594.06;;;24.23;74.93
6349;BME280;3207;42.648;23.406;2022-08-21T01:27:19;99594.44;;;24.27;74.65
6349;BME280;3207;42.648;23.406;2022-08-21T01:29:51;99598.75;;;24.28;74.21
6349;BME280;3207;42.648;23.406;2022-08-21T01:32:20;99587.09;;;24.22;74.19
6349;BME280;3207;42.648;23.406;2022-08-21T01:34:49;99591.78;;;24.27;74.19
6349;BME280;3207;42.648;23.406;2022-08-21T01:37:17;99593.63;;;24.26;73.84
6349;BME280;3207;42.648;23.406;2022-08-21T01:39:46;99593.88;;;24.25;73.65
6349;BME280;3207;42.648;23.406;2022-08-21T01:42:14;99594.91;;;24.24;73.12
6349;BME280;3207;42.648;23.406;2022-08-21T01:44:41;99591.41;;;24.23;73.23
6349;BME280;3207;42.648;23.406;2022-08-21T01:47:10;99588.94;;;24.22;72.72
6349;BME280;3207;42.648;23.406;2022-08-21T01:49:38;99586.66;;;24.19;73.29
6349;BME280;3207;42.648;23.406;2022-08-21T01:52:05;99575.97;;;24.19;73.03
6349;BME280;3207;42.648;23.406;2022-08-21T01:54:32;99575.56;;;24.15;73.00
6349;BME280;3207;42.648;23.406;2022-08-21T01:57:00;99581.34;;;24.12;72.70
6349;BME280;3207;42.648;23.406;2022-08-21T01:59:27;99582.75;;;24.08;73.49
6349;BME280;3207;42.648;23.406;2022-08-21T02:01:54;99577.22;;;24.09;73.47
6349;BME280;3207;42.648;23.406;2022-08-21T02:04:21;99580.91;;;24.08;73.30
6349;BME280;3207;42.648;23.406;2022-08-21T02:06:48;99579.28;;;24.07;73.46
6349;BME280;3207;42.648;23.406;2022-08-21T02:09:15;99559.56;;;23.95;73.36
6349;BME280;3207;42.648;23.406;2022-08-21T02:11:42;99574.38;;;24.04;73.37
6349;BME280;3207;42.648;23.406;2022-08-21T02:14:11;99574.78;;;24.01;73.87
6349;BME280;3207;42.648;23.406;2022-08-21T02:16:40;99573.53;;;23.97;74.48
6349;BME280;3207;42.648;23.406;2022-08-21T02:19:07;99576.03;;;23.92;75.02
6349;BME280;3207;42.648;23.406;2022-08-21T02:21:34;99572.53;;;23.85;75.25
6349;BME280;3207;42.648;23.406;2022-08-21T02:24:01;99573.41;;;23.73;75.78
6349;BME280;3207;42.648;23.406;2022-08-21T02:26:27;99570.72;;;23.66;76.26
6349;BME280;3207;42.648;23.406;2022-08-21T02:28:54;99565.19;;;23.61;76.67
6349;BME280;3207;42.648;23.406;2022-08-21T02:31:22;99554.72;;;23.53;76.82
6349;BME280;3207;42.648;23.406;2022-08-21T02:33:49;99555.31;;;23.55;77.15
6349;BME280;3207;42.648;23.406;2022-08-21T02:36:16;99555.31;;;23.55;77.13
6349;BME280;3207;42.648;23.406;2022-08-21T02:38:43;99550.63;;;23.50;77.06
6349;BME280;3207;42.648;23.406;2022-08-21T02:41:12;99563.16;;;23.50;77.54
6349;BME280;3207;42.648;23.406;2022-08-21T02:43:39;99567.22;;;23.46;77.42
6349;BME280;3207;42.648;23.406;2022-08-21T02:46:07;99571.53;;;23.47;77.68
6349;BME280;3207;42.648;23.406;2022-08-21T02:48:36;99567.81;;;23.48;77.58
6349;BME280;3207;42.648;23.406;2022-08-21T02:51:05;99567.81;;;23.48;77.53
6349;BME280;3207;42.648;23.406;2022-08-21T02:53:32;99571.31;;;23.48;77.54
6349;BME280;3207;42.648;23.406;2022-08-21T02:56:02;99565.38;;;23.46;77.56
6349;BME280;3207;42.648;23.406;2022-08-21T02:58:31;99559.19;;;23.46;77.86
6349;BME280;3207;42.648;23.406;2022-08-21T03:00:58;99563.50;;;23.47;78.00
6349;BME280;3207;42.648;23.406;2022-08-21T03:03:25;99572.34;;;23.47;77.98
6349;BME280;3207;42.648;23.406;2022-08-21T03:05:54;99569.88;;;23.46;78.09
6349;BME280;3207;42.648;23.406;2022-08-21T03:08:21;99565.97;;;23.48;78.15
6349;BME280;3207;42.648;23.406;2022-08-21T03:10:51;99568.47;;;23.50;78.17
6349;BME280;3207;42.648;23.406;2022-08-21T03:13:19;99567.47;;;23.51;78.22
6349;BME280;3207;42.648;23.406;2022-08-21T03:15:47;99572.78;;;23.51;78.35
6349;BME280;3207;42.648;23.406;2022-08-21T03:18:14;99579.78;;;23.52;78.14
6349;BME280;3207;42.648;23.406;2022-08-21T03:20:42;99571.97;;;23.50;78.27
6349;BME280;3207;42.648;23.406;2022-08-21T03:23:12;99580.16;;;23.49;78.64
6349;BME280;3207;42.648;23.406;2022-08-21T03:25:39;99580.34;;;23.47;78.58
6349;BME280;3207;42.648;23.406;2022-08-21T03:28:08;99576.84;;;23.47;78.83
6349;BME280;3207;42.648;23.406;2022-08-21T03:30:35;99578.91;;;23.45;79.38
6349;BME280;3207;42.648;23.406;2022-08-21T03:33:02;99581.97;;;23.42;79.59
6349;BME280;3207;42.648;23.406;2022-08-21T03:35:29;99575.22;;;23.39;79.88
6349;BME280;3207;42.648;23.406;2022-08-21T03:37:56;99578.91;;;23.38;80.18
6349;BME280;3207;42.648;23.406;2022-08-21T03:40:24;99572.75;;;23.38;80.19
6349;BME280;3207;42.648;23.406;2022-08-21T03:42:51;99571.94;;;23.37;80.17
6349;BME280;3207;42.648;23.406;2022-08-21T03:45:19;99568.25;;;23.38;80.10
6349;BME280;3207;42.648;23.406;2022-08-21T03:47:53;99568.44;;;23.30;80.08
6349;BME280;3207;42.648;23.406;2022-08-21T03:50:21;99569.06;;;23.25;80.36
6349;BME280;3207;42.648;23.406;2022-08-21T03:52:48;99569.44;;;23.22;80.46
6349;BME280;3207;42.648;23.406;2022-08-21T03:55:17;99571.50;;;23.20;80.97
6349;BME280;3207;42.648;23.406;2022-08-21T03:57:45;99575.22;;;23.19;80.86
6349;BME280;3207;42.648;23.406;2022-08-21T04:00:14;99576.81;;;23.20;80.77
6349;BME280;3207;42.648;23.406;2022-08-21T04:02:42;99565.97;;;23.15;80.88
6349;BME280;3207;42.648;23.406;2022-08-21T04:05:09;99580.94;;;23.16;80.88
6349;BME280;3207;42.648;23.406;2022-08-21T04:07:36;99574.16;;;23.14;81.05
6349;BME280;3207;42.648;23.406;2022-08-21T04:10:03;99561.03;;;23.06;81.19
6349;BME280;3207;42.648;23.406;2022-08-21T04:12:31;99573.53;;;23.05;81.47
6349;BME280;3207;42.648;23.406;2022-08-21T04:14:59;99572.91;;;23.03;81.70
6349;BME280;3207;42.648;23.406;2022-08-21T04:17:27;99575.78;;;23.02;81.83
6349;BME280;3207;42.648;23.406;2022-08-21T04:19:53;99572.50;;;22.99;81.77
6349;BME280;3207;42.648;23.406;2022-08-21T04:22:20;99573.53;;;22.98;81.89
6349;BME280;3207;42.648;23.406;2022-08-21T04:24:47;99569.63;;;22.94;81.91
6349;BME280;3207;42.648;23.406;2022-08-21T04:27:14;99557.31;;;22.87;82.07
6349;BME280;3207;42.648;23.406;2022-08-21T04:29:40;99569.81;;;22.93;82.39
6349;BME280;3207;42.648;23.406;2022-08-21T04:32:08;99584.16;;;22.92;82.97
6349;BME280;3207;42.648;23.406;2022-08-21T04:34:34;99582.53;;;22.91;82.76
6349;BME280;3207;42.648;23.406;2022-08-21T04:37:01;99582.53;;;22.91;82.96
6349;BME280;3207;42.648;23.406;2022-08-21T04:39:28;99580.06;;;22.89;83.11
6349;BME280;3207;42.648;23.406;2022-08-21T04:41:54;99594.00;;;22.91;83.13
6349;BME280;3207;42.648;23.406;2022-08-21T04:44:21;99593.63;;;22.94;83.13
6349;BME280;3207;42.648;23.406;2022-08-21T04:46:47;99595.06;;;22.97;83.02
6349;BME280;3207;42.648;23.406;2022-08-21T04:49:15;99544.31;;;22.71;82.60
6349;BME280;3207;42.648;23.406;2022-08-21T04:51:42;99604.31;;;23.08;82.57
6349;BME280;3207;42.648;23.406;2022-08-21T04:54:11;99604.13;;;23.09;82.39
6349;BME280;3207;42.648;23.406;2022-08-21T04:56:41;99608.22;;;23.12;82.29
6349;BME280;3207;42.648;23.406;2022-08-21T04:59:12;99611.50;;;23.14;82.24
6349;BME280;3207;42.648;23.406;2022-08-21T05:01:41;99612.13;;;23.16;82.20
6349;BME280;3207;42.648;23.406;2022-08-21T05:04:10;99617.47;;;23.22;82.01
6349;BME280;3207;42.648;23.406;2022-08-21T05:06:41;99617.69;;;23.27;81.68
6349;BME280;3207;42.648;23.406;2022-08-21T05:09:13;99599.81;;;23.21;81.11
6349;BME280;3207;42.648;23.406;2022-08-21T05:11:41;99608.66;;;23.28;81.11
6349;BME280;3207;42.648;23.406;2022-08-21T05:14:08;99606.00;;;23.28;81.14
6349;BME280;3207;42.648;23.406;2022-08-21T05:16:34;99606.00;;;23.28;80.99
6349;BME280;3207;42.648;23.406;2022-08-21T05:19:01;99614.19;;;23.27;80.77
6349;BME280;3207;42.648;23.406;2022-08-21T05:21:28;99614.41;;;23.25;80.76
6349;BME280;3207;42.648;23.406;2022-08-21T05:23:56;99610.47;;;23.21;80.89
6349;BME280;3207;42.648;23.406;2022-08-21T05:26:22;99544.56;;;22.82;81.03
6349;BME280;3207;42.648;23.406;2022-08-21T05:28:49;99611.94;;;23.24;81.12
6349;BME280;3207;42.648;23.406;2022-08-21T05:31:15;99613.19;;;23.28;81.08
6349;BME280;3207;42.648;23.406;2022-08-21T05:33:42;99599.84;;;23.28;80.80
6349;BME280;3207;42.648;23.406;2022-08-21T05:36:09;99590.78;;;23.22;80.67
6349;BME280;3207;42.648;23.406;2022-08-21T05:38:35;99613.41;;;23.40;80.72
6349;BME280;3207;42.648;23.406;2022-08-21T05:41:03;99613.59;;;23.45;80.63
6349;BME280;3207;42.648;23.406;2022-08-21T05:43:30;99617.72;;;23.54;80.42
6349;BME280;3207;42.648;23.406;2022-08-21T05:45:58;99611.38;;;23.68;80.23
6349;BME280;3207;42.648;23.406;2022-08-21T05:48:24;99612.38;;;23.87;79.93
6349;BME280;3207;42.648;23.406;2022-08-21T05:50:53;99607.44;;;24.03;79.36
6349;BME280;3207;42.648;23.406;2022-08-21T05:53:21;99605.13;;;24.20;78.20
6349;BME280;3207;42.648;23.406;2022-08-21T05:55:49;99599.78;;;24.33;77.56
6349;BME280;3207;42.648;23.406;2022-08-21T05:58:18;99605.50;;;24.43;77.23
6349;BME280;3207;42.648;23.406;2022-08-21T06:00:48;99610.38;;;24.60;76.27
6349;BME280;3207;42.648;23.406;2022-08-21T06:03:16;99605.16;;;24.78;75.87
6349;BME280;3207;42.648;23.406;2022-08-21T06:05:43;99606.94;;;24.91;74.63
6349;BME280;3207;42.648;23.406;2022-08-21T06:08:10;99613.88;;;25.05;74.00
6349;BME280;3207;42.648;23.406;2022-08-21T06:10:37;99611.97;;;25.19;73.88
6349;BME280;3207;42.648;23.406;2022-08-21T06:13:04;99611.63;;;25.33;72.90
6349;BME280;3207;42.648;23.406;2022-08-21T06:15:32;99608.03;;;25.52;72.15
6349;BME280;3207;42.648;23.406;2022-08-21T06:17:59;99615.44;;;25.75;71.39
6349;BME280;3207;42.648;23.406;2022-08-21T06:20:25;99619.00;;;25.94;70.74
6349;BME280;3207;42.648;23.406;2022-08-21T06:22:52;99617.22;;;26.06;69.61
6349;BME280;3207;42.648;23.406;2022-08-21T06:25:19;99617.38;;;26.11;69.08
6349;BME280;3207;42.648;23.406;2022-08-21T06:27:45;99614.88;;;26.16;68.37
6349;BME280;3207;42.648;23.406;2022-08-21T06:30:12;99615.66;;;26.17;68.25
6349;BME280;3207;42.648;23.406;2022-08-21T06:32:41;99614.63;;;26.18;68.20
6349;BME280;3207;42.648;23.406;2022-08-21T06:35:08;99628.41;;;26.21;67.45
6349;BME280;3207;42.648;23.406;2022-08-21T06:37:35;99621.03;;;26.17;67.22
6349;BME280;3207;42.648;23.406;2022-08-21T06:40:03;99633.03;;;26.14;67.27
6349;BME280;3207;42.648;23.406;2022-08-21T06:42:30;99616.78;;;26.09;67.23
6349;BME280;3207;42.648;23.406;2022-08-21T06:44:57;99625.03;;;26.08;67.29
6349;BME280;3207;42.648;23.406;2022-08-21T06:47:23;99628.31;;;26.10;67.13
6349;BME280;3207;42.648;23.406;2022-08-21T06:49:51;99628.72;;;26.13;66.94
6349;BME280;3207;42.648;23.406;2022-08-21T06:52:18;99630.13;;;26.16;66.56
6349;BME280;3207;42.648;23.406;2022-08-21T06:54:45;99628.84;;;26.18;66.57
6349;BME280;3207;42.648;23.406;2022-08-21T06:57:12;99628.19;;;26.23;66.26
6349;BME280;3207;42.648;23.406;2022-08-21T06:59:38;99624.31;;;26.19;66.01
6349;BME280;3207;42.648;23.406;2022-08-21T07:02:05;99629.19;;;26.29;66.02
6349;BME280;3207;42.648;23.406;2022-08-21T07:04:31;99620.84;;;26.55;65.39
6349;BME280;3207;42.648;23.406;2022-08-21T07:06:59;99620.78;;;26.91;64.87
6349;BME280;3207;42.648;23.406;2022-08-21T07:09:26;99614.09;;;27.30;63.26
6349;BME280;3207;42.648;23.406;2022-08-21T07:11:56;99602.31;;;27.43;62.32
6349;BME280;3207;42.648;23.406;2022-08-21T07:14:23;99610.09;;;27.75;61.53
6349;BME280;3207;42.648;23.406;2022-08-21T07:16:50;99611.03;;;27.92;60.69
6349;BME280;3207;42.648;23.406;2022-08-21T07:19:17;99602.38;;;28.01;60.25
6349;BME280;3207;42.648;23.406;2022-08-21T07:21:44;99611.63;;;28.17;59.77
6349;BME280;3207;42.648;23.406;2022-08-21T07:24:12;99597.69;;;28.20;59.51
6349;BME280;3207;42.648;23.406;2022-08-21T07:26:39;99613.22;;;28.41;58.71
6349;BME280;3207;42.648;23.406;2022-08-21T07:29:06;99622.19;;;28.59;58.41
6349;BME280;3207;42.648;23.406;2022-08-21T07:31:32;99616.03;;;28.75;57.06
6349;BME280;3207;42.648;23.406;2022-08-21T07:33:59;99612.06;;;29.06;55.56
6349;BME280;3207;42.648;23.406;2022-08-21T07:36:25;99611.69;;;29.59;53.52
6349;BME280;3207;42.648;23.406;2022-08-21T07:38:52;99613.69;;;30.19;52.04
6349;BME280;3207;42.648;23.406;2022-08-21T07:41:22;99612.72;;;30.69;49.83
6349;BME280;3207;42.648;23.406;2022-08-21T07:43:49;99598.00;;;30.81;49.01
6349;BME280;3207;42.648;23.406;2022-08-21T07:46:15;99607.53;;;30.89;48.99
6349;BME280;3207;42.648;23.406;2022-08-21T07:48:42;99606.59;;;31.05;47.97
6349;BME280;3207;42.648;23.406;2022-08-21T07:51:11;99605.16;;;31.19;47.42
6349;BME280;3207;42.648;23.406;2022-08-21T07:53:38;99613.19;;;31.41;47.49
6349;BME280;3207;42.648;23.406;2022-08-21T07:56:06;99607.03;;;31.78;46.23
6349;BME280;3207;42.648;23.406;2022-08-21T07:58:34;99610.75;;;32.14;44.05
6349;BME280;3207;42.648;23.406;2022-08-21T08:01:01;99606.13;;;32.61;42.48
6349;BME280;3207;42.648;23.406;2022-08-21T08:03:28;99609.53;;;33.09;40.90
6349;BME280;3207;42.648;23.406;2022-08-21T08:05:55;99593.31;;;33.50;40.38
6349;BME280;3207;42.648;23.406;2022-08-21T08:08:21;99606.84;;;33.95;38.76
6349;BME280;3207;42.648;23.406;2022-08-21T08:10:49;99605.66;;;34.37;37.73
6349;BME280;3207;42.648;23.406;2022-08-21T08:13:16;99586.22;;;34.69;37.33
6349;BME280;3207;42.648;23.406;2022-08-21T08:15:44;99598.25;;;35.07;36.11
6349;BME280;3207;42.648;23.406;2022-08-21T08:18:11;99591.06;;;35.26;35.67
6349;BME280;3207;42.648;23.406;2022-08-21T08:20:39;99591.03;;;35.60;34.83
6349;BME280;3207;42.648;23.406;2022-08-21T08:23:06;99596.13;;;36.01;34.67
6349;BME280;3207;42.648;23.406;2022-08-21T08:25:33;99592.09;;;36.22;34.34
6349;BME280;3207;42.648;23.406;2022-08-21T08:27:59;99595.91;;;36.63;33.44
6349;BME280;3207;42.648;23.406;2022-08-21T08:30:26;99591.44;;;37.10;32.76
6349;BME280;3207;42.648;23.406;2022-08-21T08:32:54;99590.13;;;37.26;31.11
6349;BME280;3207;42.648;23.406;2022-08-21T08:35:22;99582.53;;;37.05;31.31
6349;BME280;3207;42.648;23.406;2022-08-21T08:37:50;99585.78;;;37.07;30.67
6349;BME280;3207;42.648;23.406;2022-08-21T08:40:20;99583.50;;;36.95;29.69
6349;BME280;3207;42.648;23.406;2022-08-21T08:42:49;99581.66;;;36.90;28.97
6349;BME280;3207;42.648;23.406;2022-08-21T08:45:18;99571.78;;;36.94;28.67
6349;BME280;3207;42.648;23.406;2022-08-21T08:47:50;99582.88;;;36.98;28.12
6349;BME280;3207;42.648;23.406;2022-08-21T08:50:26;99582.31;;;37.01;28.38
6349;BME280;3207;42.648;23.406;2022-08-21T08:52:58;99592.56;;;36.72;28.08
6349;BME280;3207;42.648;23.406;2022-08-21T08:55:28;99597.13;;;36.34;28.79
6349;BME280;3207;42.648;23.406;2022-08-21T08:57:58;99569.97;;;35.76;28.79
6349;BME280;3207;42.648;23.406;2022-08-21T09:00:25;99573.28;;;35.68;29.88
6349;BME280;3207;42.648;23.406;2022-08-21T09:02:54;99578.22;;;35.66;30.38
6349;BME280;3207;42.648;23.406;2022-08-21T09:05:25;99586.31;;;35.71;29.88
6349;BME280;3207;42.648;23.406;2022-08-21T09:08:03;99586.59;;;35.98;29.81
6349;BME280;3207;42.648;23.406;2022-08-21T09:10:45;99589.06;;;36.23;29.97
6349;BME280;3207;42.648;23.406;2022-08-21T09:13:19;99593.28;;;36.35;28.58
6349;BME280;3207;42.648;23.406;2022-08-21T09:16:03;99586.81;;;36.49;28.71
6349;BME280;3207;42.648;23.406;2022-08-21T09:18:41;99587.50;;;36.60;28.40
6349;BME280;3207;42.648;23.406;2022-08-21T09:21:19;99586.31;;;36.66;27.70
6349;BME280;3207;42.648;23.406;2022-08-21T09:23:55;99591.78;;;36.66;27.20
6349;BME280;3207;42.648;23.406;2022-08-21T09:26:26;99586.16;;;37.19;26.69
6349;BME280;3207;42.648;23.406;2022-08-21T09:28:59;99588.63;;;37.66;25.95
6349;BME280;3207;42.648;23.406;2022-08-21T09:31:29;99578.09;;;37.60;26.47
6349;BME280;3207;42.648;23.406;2022-08-21T09:34:00;99564.81;;;37.53;25.97
6349;BME280;3207;42.648;23.406;2022-08-21T09:36:35;99575.06;;;37.61;26.02
6349;BME280;3207;42.648;23.406;2022-08-21T09:39:04;99578.97;;;37.55;26.10
6349;BME280;3207;42.648;23.406;2022-08-21T09:41:33;99573.75;;;37.26;25.60
6349;BME280;3207;42.648;23.406;2022-08-21T09:44:01;99565.66;;;37.21;25.81
6349;BME280;3207;42.648;23.406;2022-08-21T09:46:27;99557.00;;;37.33;25.97
6349;BME280;3207;42.648;23.406;2022-08-21T09:48:56;99564.19;;;37.89;25.53
6349;BME280;3207;42.648;23.406;2022-08-21T09:51:25;99562.28;;;38.30;24.37
6349;BME280;3207;42.648;23.406;2022-08-21T09:53:56;99561.03;;;38.64;24.28
6349;BME280;3207;42.648;23.406;2022-08-21T09:56:30;99542.69;;;39.00;23.85
6349;BME280;3207;42.648;23.406;2022-08-21T09:59:24;99547.50;;;39.17;22.75
6349;BME280;3207;42.648;23.406;2022-08-21T10:01:52;99529.03;;;39.00;23.20
6349;BME280;3207;42.648;23.406;2022-08-21T10:04:24;99553.38;;;39.10;23.08
6349;BME280;3207;42.648;23.406;2022-08-21T10:06:53;99544.47;;;38.96;23.59
6349;BME280;3207;42.648;23.406;2022-08-21T10:09:21;99554.00;;;38.85;23.39
6349;BME280;3207;42.648;23.406;2022-08-21T10:11:55;99548.78;;;38.47;23.75
6349;BME280;3207;42.648;23.406;2022-08-21T10:14:40;99554.09;;;38.03;24.51
6349;BME280;3207;42.648;23.406;2022-08-21T10:17:15;99548.63;;;37.76;24.92
6349;BME280;3207;42.648;23.406;2022-08-21T10:19:50;99543.34;;;37.65;24.50
6349;BME280;3207;42.648;23.406;2022-08-21T10:22:34;99544.63;;;37.54;24.90
6349;BME280;3207;42.648;23.406;2022-08-21T10:25:13;99545.88;;;37.62;25.02
6349;BME280;3207;42.648;23.406;2022-08-21T10:27:49;99503.06;;;37.44;24.41
6349;BME280;3207;42.648;23.406;2022-08-21T10:30:24;99540.13;;;37.77;24.96
6349;BME280;3207;42.648;23.406;2022-08-21T10:33:01;99542.34;;;37.89;24.71
6349;BME280;3207;42.648;23.406;2022-08-21T10:35:33;99539.94;;;37.87;24.91
6349;BME280;3207;42.648;23.406;2022-08-21T10:41:14;99529.53;;;38.03;24.39
6349;BME280;3207;42.648;23.406;2022-08-21T10:43:52;99528.78;;;37.84;24.69
6349;BME280;3207;42.648;23.406;2022-08-21T10:46:31;99519.31;;;37.67;25.74
6349;BME280;3207;42.648;23.406;2022-08-21T10:49:11;99532.47;;;37.93;25.29
6349;BME280;3207;42.648;23.406;2022-08-21T10:51:44;99525.28;;;38.11;24.97
6349;BME280;3207;42.648;23.406;2022-08-21T10:54:20;99515.44;;;37.96;24.65
6349;BME280;3207;42.648;23.406;2022-08-21T10:57:01;99521.50;;;37.65;25.25
6349;BME280;3207;42.648;23.406;2022-08-21T10:59:34;99508.09;;;37.23;26.10
6349;BME280;3207;42.648;23.406;2022-08-21T11:02:13;99521.41;;;36.73;26.56
6349;BME280;3207;42.648;23.406;2022-08-21T11:04:48;99519.69;;;36.40;26.92
6349;BME280;3207;42.648;23.406;2022-08-21T11:07:20;99513.00;;;36.08;27.82
6349;BME280;3207;42.648;23.406;2022-08-21T11:09:49;99513.34;;;35.78;28.58
6349;BME280;3207;42.648;23.406;2022-08-21T11:12:24;99514.47;;;35.48;28.31
6349;BME280;3207;42.648;23.406;2022-08-21T11:14:54;99514.13;;;35.20;28.88
6349;BME280;3207;42.648;23.406;2022-08-21T11:17:29;99501.16;;;34.78;28.93
6349;BME280;3207;42.648;23.406;2022-08-21T11:20:03;99513.28;;;34.47;29.75
6349;BME280;3207;42.648;23.406;2022-08-21T11:22:37;99509.88;;;34.21;30.35
6349;BME280;3207;42.648;23.406;2022-08-21T11:25:09;99520.03;;;34.00;30.36
6349;BME280;3207;42.648;23.406;2022-08-21T11:27:42;99512.50;;;33.67;30.51
6349;BME280;3207;42.648;23.406;2022-08-21T11:30:11;99511.44;;;33.27;30.98
6349;BME280;3207;42.648;23.406;2022-08-21T11:32:48;99509.53;;;32.77;31.34
6349;BME280;3207;42.648;23.406;2022-08-21T11:35:30;99495.59;;;32.33;32.24
6349;BME280;3207;42.648;23.406;2022-08-21T11:38:08;99499.28;;;32.12;32.79
6349;BME280;3207;42.648;23.406;2022-08-21T11:40:46;99496.28;;;31.98;33.35
6349;BME280;3207;42.648;23.406;2022-08-21T11:43:23;99457.09;;;31.58;33.76
6349;BME280;3207;42.648;23.406;2022-08-21T11:45:56;99487.81;;;31.84;33.76
6349;BME280;3207;42.648;23.406;2022-08-21T11:48:34;99490.78;;;31.83;34.02
6349;BME280;3207;42.648;23.406;2022-08-21T11:51:07;99492.97;;;31.86;33.90
6349;BME280;3207;42.648;23.406;2022-08-21T11:53:40;99498.94;;;31.88;34.04
6349;BME280;3207;42.648;23.406;2022-08-21T11:56:11;99490.53;;;31.89;33.99
6349;BME280;3207;42.648;23.406;2022-08-21T11:58:45;99495.41;;;31.92;34.23
6349;BME280;3207;42.648;23.406;2022-08-21T12:01:17;99490.59;;;31.99;33.88
6349;BME280;3207;42.648;23.406;2022-08-21T12:03:54;99493.00;;;32.01;34.21
6349;BME280;3207;42.648;23.406;2022-08-21T12:06:30;99491.13;;;32.01;33.78
6349;BME280;3207;42.648;23.406;2022-08-21T12:08:59;99487.91;;;31.99;33.85
6349;BME280;3207;42.648;23.406;2022-08-21T12:11:26;99480.88;;;32.04;34.06
6349;BME280;3207;42.648;23.406;2022-08-21T12:13:57;99486.81;;;32.11;33.71
6349;BME280;3207;42.648;23.406;2022-08-21T12:16:32;99483.00;;;32.01;33.42
6349;BME280;3207;42.648;23.406;2022-08-21T12:19:04;99471.59;;;31.84;33.09
6349;BME280;3207;42.648;23.406;2022-08-21T12:21:31;99480.78;;;31.83;32.98
6349;BME280;3207;42.648;23.406;2022-08-21T12:24:04;99482.31;;;31.69;33.36
6349;BME280;3207;42.648;23.406;2022-08-21T12:26:34;99472.59;;;31.68;33.48
6349;BME280;3207;42.648;23.406;2022-08-21T12:29:10;99479.59;;;31.64;33.31
6349;BME280;3207;42.648;23.406;2022-08-21T12:31:52;99468.81;;;31.69;33.14
6349;BME280;3207;42.648;23.406;2022-08-21T12:34:20;99464.50;;;31.73;33.52
6349;BME280;3207;42.648;23.406;2022-08-21T12:36:53;99461.28;;;31.76;33.09
6349;BME280;3207;42.648;23.406;2022-08-21T12:39:23;99450.44;;;31.71;32.81
6349;BME280;3207;42.648;23.406;2022-08-21T12:41:56;99461.84;;;31.78;32.79
6349;BME280;3207;42.648;23.406;2022-08-21T12:44:30;99456.66;;;31.72;32.32
6349;BME280;3207;42.648;23.406;2022-08-21T12:47:03;99465.69;;;31.50;32.78
6349;BME280;3207;42.648;23.406;2022-08-21T12:49:35;99458.88;;;31.38;33.34
6349;BME280;3207;42.648;23.406;2022-08-21T12:52:07;99453.38;;;31.22;32.89
6349;BME280;3207;42.648;23.406;2022-08-21T12:54:39;99456.97;;;31.01;33.29
6349;BME280;3207;42.648;23.406;2022-08-21T12:57:08;99449.78;;;30.80;34.20
6349;BME280;3207;42.648;23.406;2022-08-21T12:59:38;99454.84;;;30.71;34.11
6349;BME280;3207;42.648;23.406;2022-08-21T13:02:15;99447.41;;;30.56;34.06
6349;BME280;3207;42.648;23.406;2022-08-21T13:04:43;99444.41;;;30.31;34.21
6349;BME280;3207;42.648;23.406;2022-08-21T13:07:13;99454.28;;;30.20;34.72
6349;BME280;3207;42.648;23.406;2022-08-21T13:09:48;99451.22;;;30.12;34.74
6349;BME280;3207;42.648;23.406;2022-08-21T13:12:16;99451.19;;;30.07;34.98
6349;BME280;3207;42.648;23.406;2022-08-21T13:14:46;99455.53;;;30.08;35.51
6349;BME280;3207;42.648;23.406;2022-08-21T13:17:16;99445.28;;;30.10;35.66
6349;BME280;3207;42.648;23.406;2022-08-21T13:19:52;99445.84;;;30.12;35.55
6349;BME280;3207;42.648;23.406;2022-08-21T13:22:19;99430.59;;;30.01;35.38
6349;BME280;3207;42.648;23.406;2022-08-21T13:24:47;99443.84;;;30.02;35.23